Kezdőlap
METAR-TAF:

METAR-TAF

Repülőterek :

Benton Harbor, Michigan, Amerikai Egyesült Államok

földrajzi szélesség: 42-07-43N, földrajzi hosszúság: 086-25-42W, magasság: 196 m

Jelenlegi meteorológiai megfigyelések

A jelentés 32 perccel ezelõtt készült, 10:53 UTC
Szélcsend
Hőmérséklet 16°C
Páratartalom 88%
Légköri nyomás 1020 hPa
Látótávolság: 11.3 km
Derült ég

METAR: KBEH 211053Z AUTO 00000KT 7SM CLR 16/14 A3012 RMK AO2 SLP195 T01610139 $

Idő: 07:25 (11:25 UTC)


TAF: hiányzik

Meteorológiai megfigyelések és előrejelzések több, mint 4000 repülőtéren (METAR és TAF jelentéseket).

A térképen piros és sárga pontok jelzik az elérhető meteorológiai állomásokat.

Mozgassa az egeret a pont fölött, hogy megjelenjen az állomás neve.

Azután kattintson az időjárási megfigyelések és előrejelzések megtekintéséhez.

A térkép megváltoztatása: kattintson a fekete keresztel jelölt zöld gombra ráközelítéshez, a vonallal jelölt zöld gombra távolításhoz, vagy a zöld nyilakra a szomszédos térképek eléréséhez.


METAR-TAF: